Roanoke, VA (24001)

2:01 PM EDT on July 28, 2016 (GMT -0400)
Raleigh Court - 1043ft. (Near Wasena ES) | | Change Station

Elev 1043 ft 37.26 °N, 79.97 °W | Updated 19 seconds ago

Partly Cloudy
Partly Cloudy
90.5 °F
Feels Like 101 °F
N
0.0
Wind Variable Wind from WSW
Gusts 3.0 mph

Today
High -- | Low -- °F
--% Chance of Precip.
Yesterday
High -- | Low -- °F
Precip. -- in
Pressure 29.88 in
Visibility 10.0 miles
Clouds Few 7500 ft
Few 9000 ft
Heat Index 101 °F
Dew Point 75 °F
Humidity 60%
Rainfall 0.00 in
Snow Depth Not available.
6:21 AM 8:30 PM
Waning Crescent, 30% visible
METAR KROA 281754Z VRB03KT 10SM FEW075 FEW090 33/19 A2993 RMK AO2 SLP119 T03280194 10328 20239 58017
Pressure 29.88 in
Visibility 10.0 miles
Clouds Few 7500 ft
Few 9000 ft
Heat Index 101 °F
Dew Point 75 °F
Humidity 60%
Rainfall 0.00 in
Snow Depth Not available.
6:21 AM 8:30 PM
Waning Crescent, 30% visible
METAR KROA 281754Z VRB03KT 10SM FEW075 FEW090 33/19 A2993 RMK AO2 SLP119 T03280194 10328 20239 58017

10-Day Weather Forecast

Almanac

Astronomy

Jul. 28, 2016 Rise Set
Actual Time
Civil Twilight
Nautical Twilight
Astronomical Twilight
Moon
Length of Visible Light
Length of Day
Tomorrow will be .
, % of the Moon is Illuminated

Today's Extremes

State Highs State Lows

Community

WunderPhotos

Upload Photos

1,928,172 photos uploaded!

WunderBlog® & News

Nearby

Air Quality

  Air Quality AQ Index Pollutant
Not available.

Snow Depth

Station Depth Elevation

Earthquake Activity

City Distance Mag. Time & Date
Minimum magnitude displayed is 2.5.

Coastal Water Temperatures

Place Temperature

Stations

Nearby Weather Stations

Station Location Temp. Windchill Dew Point Humidity Wind Precip. Elev Updated Type
                   

Watches & Warnings

There are currently no watches in effect.